NCAR-RAP Real-Time Weather Data

Output produced by METARs form (14 October 2019  23:36 UTC)
found at http://weather.rap.ucar.edu/surface/
 
KCYS 142253Z 28018G22KT 10SM CLR 19/M13 A2993 RMK AO2 PK WND 30026/2238 SLP085 T01891133